sensor_id;sensor_type;location;lat;lon;timestamp;P1;durP1;ratioP1;P2;durP2;ratioP2
59922;SDS011;45778;51.142;3.732;2022-10-16T00:01:58;0.77;;;0.50;;
59922;SDS011;45778;51.142;3.732;2022-10-16T00:04:23;1.40;;;0.47;;
59922;SDS011;45778;51.142;3.732;2022-10-16T00:06:49;1.42;;;0.50;;
59922;SDS011;45778;51.142;3.732;2022-10-16T00:09:14;0.80;;;0.40;;
59922;SDS011;45778;51.142;3.732;2022-10-16T00:11:40;3.00;;;0.65;;
59922;SDS011;45778;51.142;3.732;2022-10-16T00:14:07;1.88;;;0.40;;
59922;SDS011;45778;51.142;3.732;2022-10-16T00:16:36;0.70;;;0.57;;
59922;SDS011;45778;51.142;3.732;2022-10-16T00:19:02;0.55;;;0.40;;
59922;SDS011;45778;51.142;3.732;2022-10-16T00:21:29;0.63;;;0.43;;
59922;SDS011;45778;51.142;3.732;2022-10-16T00:24:05;3.70;;;0.50;;
59922;SDS011;45778;51.142;3.732;2022-10-16T00:26:33;3.67;;;0.70;;
59922;SDS011;45778;51.142;3.732;2022-10-16T00:29:00;2.10;;;0.65;;
59922;SDS011;45778;51.142;3.732;2022-10-16T00:31:26;2.92;;;0.47;;
59922;SDS011;45778;51.142;3.732;2022-10-16T00:33:52;1.38;;;0.40;;
59922;SDS011;45778;51.142;3.732;2022-10-16T00:36:19;2.63;;;0.60;;
59922;SDS011;45778;51.142;3.732;2022-10-16T00:38:49;4.32;;;0.60;;
59922;SDS011;45778;51.142;3.732;2022-10-16T00:41:17;1.75;;;0.80;;
59922;SDS011;45778;51.142;3.732;2022-10-16T00:43:51;1.17;;;0.68;;
59922;SDS011;45778;51.142;3.732;2022-10-16T00:46:23;1.33;;;0.70;;
59922;SDS011;45778;51.142;3.732;2022-10-16T00:51:34;1.52;;;0.70;;
59922;SDS011;45778;51.142;3.732;2022-10-16T00:54:02;2.00;;;0.68;;
59922;SDS011;45778;51.142;3.732;2022-10-16T00:56:31;3.67;;;0.60;;
59922;SDS011;45778;51.142;3.732;2022-10-16T00:58:57;1.25;;;0.77;;
59922;SDS011;45778;51.142;3.732;2022-10-16T01:01:26;2.33;;;0.68;;
59922;SDS011;45778;51.142;3.732;2022-10-16T01:03:52;3.22;;;1.08;;
59922;SDS011;45778;51.142;3.732;2022-10-16T01:06:27;0.73;;;0.60;;
59922;SDS011;45778;51.142;3.732;2022-10-16T01:12:14;1.17;;;0.57;;
59922;SDS011;45778;51.142;3.732;2022-10-16T01:14:54;1.85;;;0.88;;
59922;SDS011;45778;51.142;3.732;2022-10-16T01:17:32;2.30;;;1.27;;
59922;SDS011;45778;51.142;3.732;2022-10-16T01:20:20;1.92;;;0.77;;
59922;SDS011;45778;51.142;3.732;2022-10-16T01:28:28;3.40;;;1.10;;
59922;SDS011;45778;51.142;3.732;2022-10-16T01:30:59;2.78;;;1.30;;
59922;SDS011;45778;51.142;3.732;2022-10-16T01:33:37;2.03;;;1.00;;
59922;SDS011;45778;51.142;3.732;2022-10-16T01:38:38;1.40;;;0.70;;
59922;SDS011;45778;51.142;3.732;2022-10-16T01:41:07;2.20;;;0.80;;
59922;SDS011;45778;51.142;3.732;2022-10-16T01:43:46;1.02;;;0.80;;
59922;SDS011;45778;51.142;3.732;2022-10-16T01:46:16;2.90;;;1.08;;
59922;SDS011;45778;51.142;3.732;2022-10-16T01:48:45;2.83;;;1.48;;
59922;SDS011;45778;51.142;3.732;2022-10-16T01:51:12;2.30;;;0.93;;
59922;SDS011;45778;51.142;3.732;2022-10-16T01:53:40;1.58;;;0.73;;
59922;SDS011;45778;51.142;3.732;2022-10-16T01:56:09;1.85;;;0.95;;
59922;SDS011;45778;51.142;3.732;2022-10-16T01:58:47;2.03;;;0.80;;
59922;SDS011;45778;51.142;3.732;2022-10-16T02:01:26;2.60;;;0.80;;
59922;SDS011;45778;51.142;3.732;2022-10-16T02:03:56;3.58;;;0.98;;
59922;SDS011;45778;51.142;3.732;2022-10-16T02:06:26;3.25;;;0.98;;
59922;SDS011;45778;51.142;3.732;2022-10-16T02:08:53;1.70;;;0.90;;
59922;SDS011;45778;51.142;3.732;2022-10-16T02:11:18;2.88;;;0.80;;
59922;SDS011;45778;51.142;3.732;2022-10-16T02:13:55;1.17;;;0.60;;
59922;SDS011;45778;51.142;3.732;2022-10-16T02:16:36;1.60;;;0.90;;
59922;SDS011;45778;51.142;3.732;2022-10-16T02:19:07;1.98;;;0.75;;
59922;SDS011;45778;51.142;3.732;2022-10-16T02:21:39;2.55;;;0.88;;
59922;SDS011;45778;51.142;3.732;2022-10-16T02:26:52;1.30;;;0.70;;
59922;SDS011;45778;51.142;3.732;2022-10-16T02:29:38;1.92;;;0.90;;
59922;SDS011;45778;51.142;3.732;2022-10-16T02:32:09;3.15;;;0.90;;
59922;SDS011;45778;51.142;3.732;2022-10-16T02:34:38;1.52;;;0.80;;
59922;SDS011;45778;51.142;3.732;2022-10-16T02:37:05;2.88;;;0.80;;
59922;SDS011;45778;51.142;3.732;2022-10-16T02:39:32;6.13;;;0.80;;
59922;SDS011;45778;51.142;3.732;2022-10-16T02:41:58;1.67;;;0.70;;
59922;SDS011;45778;51.142;3.732;2022-10-16T02:44:24;3.03;;;0.95;;
59922;SDS011;45778;51.142;3.732;2022-10-16T02:46:49;1.65;;;0.80;;
59922;SDS011;45778;51.142;3.732;2022-10-16T02:49:15;3.50;;;0.90;;
59922;SDS011;45778;51.142;3.732;2022-10-16T02:51:41;2.55;;;0.63;;
59922;SDS011;45778;51.142;3.732;2022-10-16T02:54:06;1.95;;;0.80;;
59922;SDS011;45778;51.142;3.732;2022-10-16T02:56:32;1.75;;;0.85;;
59922;SDS011;45778;51.142;3.732;2022-10-16T02:58:58;3.20;;;0.80;;
59922;SDS011;45778;51.142;3.732;2022-10-16T03:01:23;1.48;;;0.85;;
59922;SDS011;45778;51.142;3.732;2022-10-16T03:03:49;2.08;;;1.05;;
59922;SDS011;45778;51.142;3.732;2022-10-16T03:06:15;3.92;;;1.00;;
59922;SDS011;45778;51.142;3.732;2022-10-16T03:08:41;1.88;;;0.70;;
59922;SDS011;45778;51.142;3.732;2022-10-16T03:11:07;3.10;;;1.10;;
59922;SDS011;45778;51.142;3.732;2022-10-16T03:13:32;2.80;;;0.88;;
59922;SDS011;45778;51.142;3.732;2022-10-16T03:15:58;3.22;;;0.77;;
59922;SDS011;45778;51.142;3.732;2022-10-16T03:18:24;1.17;;;0.70;;
59922;SDS011;45778;51.142;3.732;2022-10-16T03:20:49;2.22;;;0.82;;
59922;SDS011;45778;51.142;3.732;2022-10-16T03:23:15;7.72;;;1.23;;
59922;SDS011;45778;51.142;3.732;2022-10-16T03:25:41;2.97;;;1.00;;
59922;SDS011;45778;51.142;3.732;2022-10-16T03:28:06;4.45;;;1.02;;
59922;SDS011;45778;51.142;3.732;2022-10-16T03:30:32;2.35;;;1.00;;
59922;SDS011;45778;51.142;3.732;2022-10-16T03:32:58;6.10;;;1.40;;
59922;SDS011;45778;51.142;3.732;2022-10-16T03:35:24;4.78;;;1.20;;
59922;SDS011;45778;51.142;3.732;2022-10-16T03:37:50;2.28;;;1.20;;
59922;SDS011;45778;51.142;3.732;2022-10-16T03:40:16;3.17;;;1.20;;
59922;SDS011;45778;51.142;3.732;2022-10-16T03:42:42;2.40;;;1.10;;
59922;SDS011;45778;51.142;3.732;2022-10-16T03:45:09;4.90;;;1.35;;
59922;SDS011;45778;51.142;3.732;2022-10-16T03:47:35;2.67;;;0.85;;
59922;SDS011;45778;51.142;3.732;2022-10-16T03:50:01;3.08;;;1.00;;
59922;SDS011;45778;51.142;3.732;2022-10-16T03:52:27;3.15;;;1.17;;
59922;SDS011;45778;51.142;3.732;2022-10-16T03:54:53;4.20;;;1.60;;
59922;SDS011;45778;51.142;3.732;2022-10-16T03:57:19;2.38;;;1.02;;
59922;SDS011;45778;51.142;3.732;2022-10-16T03:59:46;4.63;;;1.50;;
59922;SDS011;45778;51.142;3.732;2022-10-16T04:02:12;7.80;;;1.35;;
59922;SDS011;45778;51.142;3.732;2022-10-16T04:04:38;2.15;;;1.17;;
59922;SDS011;45778;51.142;3.732;2022-10-16T04:07:04;2.55;;;1.08;;
59922;SDS011;45778;51.142;3.732;2022-10-16T04:09:30;3.70;;;1.20;;
59922;SDS011;45778;51.142;3.732;2022-10-16T04:11:55;3.63;;;1.10;;
59922;SDS011;45778;51.142;3.732;2022-10-16T04:14:21;4.68;;;1.25;;
59922;SDS011;45778;51.142;3.732;2022-10-16T04:16:47;3.70;;;1.17;;
59922;SDS011;45778;51.142;3.732;2022-10-16T04:19:12;4.35;;;1.20;;
59922;SDS011;45778;51.142;3.732;2022-10-16T04:21:38;3.22;;;1.10;;
59922;SDS011;45778;51.142;3.732;2022-10-16T04:24:04;2.78;;;1.10;;
59922;SDS011;45778;51.142;3.732;2022-10-16T04:26:30;1.77;;;0.82;;
59922;SDS011;45778;51.142;3.732;2022-10-16T04:28:55;1.77;;;0.80;;
59922;SDS011;45778;51.142;3.732;2022-10-16T04:31:21;4.05;;;1.00;;
59922;SDS011;45778;51.142;3.732;2022-10-16T04:33:47;3.97;;;1.02;;
59922;SDS011;45778;51.142;3.732;2022-10-16T04:36:13;11.52;;;1.50;;
59922;SDS011;45778;51.142;3.732;2022-10-16T04:38:38;2.92;;;1.08;;
59922;SDS011;45778;51.142;3.732;2022-10-16T04:41:05;3.53;;;0.93;;
59922;SDS011;45778;51.142;3.732;2022-10-16T04:43:31;6.53;;;1.13;;
59922;SDS011;45778;51.142;3.732;2022-10-16T04:45:57;3.25;;;1.00;;
59922;SDS011;45778;51.142;3.732;2022-10-16T04:48:23;3.15;;;0.73;;
59922;SDS011;45778;51.142;3.732;2022-10-16T04:50:49;3.17;;;0.90;;
59922;SDS011;45778;51.142;3.732;2022-10-16T04:53:14;3.33;;;1.00;;
59922;SDS011;45778;51.142;3.732;2022-10-16T04:55:40;2.38;;;0.98;;
59922;SDS011;45778;51.142;3.732;2022-10-16T04:58:07;1.77;;;1.08;;
59922;SDS011;45778;51.142;3.732;2022-10-16T05:00:33;6.30;;;1.15;;
59922;SDS011;45778;51.142;3.732;2022-10-16T05:02:59;5.35;;;1.20;;
59922;SDS011;45778;51.142;3.732;2022-10-16T05:05:25;2.38;;;1.00;;
59922;SDS011;45778;51.142;3.732;2022-10-16T05:07:52;4.68;;;1.10;;
59922;SDS011;45778;51.142;3.732;2022-10-16T05:10:17;6.63;;;1.13;;
59922;SDS011;45778;51.142;3.732;2022-10-16T05:12:43;3.38;;;0.95;;
59922;SDS011;45778;51.142;3.732;2022-10-16T05:15:09;3.55;;;1.27;;
59922;SDS011;45778;51.142;3.732;2022-10-16T05:17:35;3.47;;;1.15;;
59922;SDS011;45778;51.142;3.732;2022-10-16T05:20:00;3.50;;;1.25;;
59922;SDS011;45778;51.142;3.732;2022-10-16T05:22:27;5.88;;;1.10;;
59922;SDS011;45778;51.142;3.732;2022-10-16T05:24:52;3.25;;;1.00;;
59922;SDS011;45778;51.142;3.732;2022-10-16T05:27:18;3.25;;;0.90;;
59922;SDS011;45778;51.142;3.732;2022-10-16T05:29:47;5.13;;;1.17;;
59922;SDS011;45778;51.142;3.732;2022-10-16T05:32:14;4.32;;;1.05;;
59922;SDS011;45778;51.142;3.732;2022-10-16T05:34:41;1.85;;;0.80;;
59922;SDS011;45778;51.142;3.732;2022-10-16T05:37:06;2.63;;;1.20;;
59922;SDS011;45778;51.142;3.732;2022-10-16T05:39:32;3.22;;;0.88;;
59922;SDS011;45778;51.142;3.732;2022-10-16T05:41:58;3.92;;;1.00;;
59922;SDS011;45778;51.142;3.732;2022-10-16T05:44:23;3.10;;;1.10;;
59922;SDS011;45778;51.142;3.732;2022-10-16T05:46:49;3.65;;;1.10;;
59922;SDS011;45778;51.142;3.732;2022-10-16T05:49:15;7.20;;;1.13;;
59922;SDS011;45778;51.142;3.732;2022-10-16T05:51:40;4.13;;;2.17;;
59922;SDS011;45778;51.142;3.732;2022-10-16T05:54:06;4.78;;;1.30;;
59922;SDS011;45778;51.142;3.732;2022-10-16T05:56:32;4.05;;;1.05;;
59922;SDS011;45778;51.142;3.732;2022-10-16T05:58:58;2.83;;;1.23;;
59922;SDS011;45778;51.142;3.732;2022-10-16T06:01:23;3.95;;;1.00;;
59922;SDS011;45778;51.142;3.732;2022-10-16T06:03:52;1.85;;;0.70;;
59922;SDS011;45778;51.142;3.732;2022-10-16T06:06:22;2.10;;;1.00;;
59922;SDS011;45778;51.142;3.732;2022-10-16T06:08:51;3.40;;;0.95;;
59922;SDS011;45778;51.142;3.732;2022-10-16T06:11:21;2.80;;;1.08;;
59922;SDS011;45778;51.142;3.732;2022-10-16T06:13:51;4.47;;;1.30;;
59922;SDS011;45778;51.142;3.732;2022-10-16T06:16:18;6.38;;;0.93;;
59922;SDS011;45778;51.142;3.732;2022-10-16T06:18:45;2.53;;;0.93;;
59922;SDS011;45778;51.142;3.732;2022-10-16T06:21:12;3.75;;;1.10;;
59922;SDS011;45778;51.142;3.732;2022-10-16T06:23:45;3.70;;;1.30;;
59922;SDS011;45778;51.142;3.732;2022-10-16T06:26:12;3.90;;;1.10;;
59922;SDS011;45778;51.142;3.732;2022-10-16T06:28:39;4.10;;;1.10;;
59922;SDS011;45778;51.142;3.732;2022-10-16T06:31:06;4.22;;;1.20;;
59922;SDS011;45778;51.142;3.732;2022-10-16T06:33:34;6.40;;;1.08;;
59922;SDS011;45778;51.142;3.732;2022-10-16T06:36:04;5.60;;;0.80;;
59922;SDS011;45778;51.142;3.732;2022-10-16T06:38:30;3.95;;;1.42;;
59922;SDS011;45778;51.142;3.732;2022-10-16T06:40:57;4.15;;;1.02;;
59922;SDS011;45778;51.142;3.732;2022-10-16T06:43:23;3.03;;;1.20;;
59922;SDS011;45778;51.142;3.732;2022-10-16T06:45:55;9.25;;;2.13;;
59922;SDS011;45778;51.142;3.732;2022-10-16T06:48:22;3.65;;;1.15;;
59922;SDS011;45778;51.142;3.732;2022-10-16T06:50:56;3.60;;;1.13;;
59922;SDS011;45778;51.142;3.732;2022-10-16T06:53:27;6.28;;;1.10;;
59922;SDS011;45778;51.142;3.732;2022-10-16T06:55:55;7.07;;;1.40;;
59922;SDS011;45778;51.142;3.732;2022-10-16T06:58:21;6.80;;;1.30;;
59922;SDS011;45778;51.142;3.732;2022-10-16T07:00:47;8.63;;;3.00;;
59922;SDS011;45778;51.142;3.732;2022-10-16T07:03:12;6.13;;;1.95;;
59922;SDS011;45778;51.142;3.732;2022-10-16T07:05:39;2.95;;;1.17;;
59922;SDS011;45778;51.142;3.732;2022-10-16T07:08:05;3.03;;;1.33;;
59922;SDS011;45778;51.142;3.732;2022-10-16T07:10:31;5.03;;;1.30;;
59922;SDS011;45778;51.142;3.732;2022-10-16T07:12:57;4.65;;;1.27;;
59922;SDS011;45778;51.142;3.732;2022-10-16T07:15:24;3.20;;;1.20;;
59922;SDS011;45778;51.142;3.732;2022-10-16T07:17:50;4.88;;;1.70;;
59922;SDS011;45778;51.142;3.732;2022-10-16T07:20:16;5.53;;;1.23;;
59922;SDS011;45778;51.142;3.732;2022-10-16T07:22:42;5.72;;;1.25;;
59922;SDS011;45778;51.142;3.732;2022-10-16T07:25:07;3.60;;;1.20;;
59922;SDS011;45778;51.142;3.732;2022-10-16T07:27:33;6.70;;;1.10;;
59922;SDS011;45778;51.142;3.732;2022-10-16T07:29:59;6.15;;;1.33;;
59922;SDS011;45778;51.142;3.732;2022-10-16T07:32:25;4.60;;;1.30;;
59922;SDS011;45778;51.142;3.732;2022-10-16T07:34:51;5.20;;;1.48;;
59922;SDS011;45778;51.142;3.732;2022-10-16T07:37:17;3.83;;;1.15;;
59922;SDS011;45778;51.142;3.732;2022-10-16T07:39:43;6.65;;;1.27;;
59922;SDS011;45778;51.142;3.732;2022-10-16T07:42:09;3.03;;;0.90;;
59922;SDS011;45778;51.142;3.732;2022-10-16T07:44:35;4.75;;;1.10;;
59922;SDS011;45778;51.142;3.732;2022-10-16T07:47:01;4.95;;;1.10;;
59922;SDS011;45778;51.142;3.732;2022-10-16T07:49:27;4.30;;;1.10;;
59922;SDS011;45778;51.142;3.732;2022-10-16T07:51:53;5.13;;;1.20;;
59922;SDS011;45778;51.142;3.732;2022-10-16T07:54:19;4.43;;;0.85;;
59922;SDS011;45778;51.142;3.732;2022-10-16T07:56:44;4.00;;;0.95;;
59922;SDS011;45778;51.142;3.732;2022-10-16T07:59:10;6.90;;;1.45;;
59922;SDS011;45778;51.142;3.732;2022-10-16T08:01:35;3.20;;;0.90;;
59922;SDS011;45778;51.142;3.732;2022-10-16T08:04:01;5.90;;;1.38;;
59922;SDS011;45778;51.142;3.732;2022-10-16T08:06:27;3.00;;;1.13;;
59922;SDS011;45778;51.142;3.732;2022-10-16T08:08:52;7.10;;;1.45;;
59922;SDS011;45778;51.142;3.732;2022-10-16T08:11:18;6.05;;;1.20;;
59922;SDS011;45778;51.142;3.732;2022-10-16T08:13:44;4.82;;;1.60;;
59922;SDS011;45778;51.142;3.732;2022-10-16T08:16:10;6.97;;;1.65;;
59922;SDS011;45778;51.142;3.732;2022-10-16T08:18:36;5.13;;;1.15;;
59922;SDS011;45778;51.142;3.732;2022-10-16T08:21:03;7.47;;;1.35;;
59922;SDS011;45778;51.142;3.732;2022-10-16T08:23:30;4.50;;;1.02;;
59922;SDS011;45778;51.142;3.732;2022-10-16T08:26:01;5.65;;;0.95;;
59922;SDS011;45778;51.142;3.732;2022-10-16T08:28:29;9.80;;;1.20;;
59922;SDS011;45778;51.142;3.732;2022-10-16T08:30:54;3.05;;;1.63;;
59922;SDS011;45778;51.142;3.732;2022-10-16T08:33:21;7.10;;;1.63;;
59922;SDS011;45778;51.142;3.732;2022-10-16T08:35:51;5.20;;;1.27;;
59922;SDS011;45778;51.142;3.732;2022-10-16T08:38:18;6.57;;;1.38;;
59922;SDS011;45778;51.142;3.732;2022-10-16T08:40:44;8.05;;;1.25;;
59922;SDS011;45778;51.142;3.732;2022-10-16T08:48:43;5.65;;;1.17;;
59922;SDS011;45778;51.142;3.732;2022-10-16T08:51:19;5.72;;;1.55;;
59922;SDS011;45778;51.142;3.732;2022-10-16T08:53:55;3.83;;;0.93;;
59922;SDS011;45778;51.142;3.732;2022-10-16T08:56:23;4.55;;;1.45;;
59922;SDS011;45778;51.142;3.732;2022-10-16T08:58:51;4.03;;;1.00;;
59922;SDS011;45778;51.142;3.732;2022-10-16T09:01:19;3.20;;;1.00;;
59922;SDS011;45778;51.142;3.732;2022-10-16T09:11:48;4.68;;;1.30;;
59922;SDS011;45778;51.142;3.732;2022-10-16T09:23:45;5.60;;;1.27;;
59922;SDS011;45778;51.142;3.732;2022-10-16T09:25:49;3.53;;;1.50;;
59922;SDS011;45778;51.142;3.732;2022-10-16T09:28:16;3.53;;;1.02;;
59922;SDS011;45778;51.142;3.732;2022-10-16T09:30:43;5.57;;;2.08;;
59922;SDS011;45778;51.142;3.732;2022-10-16T09:33:09;4.55;;;1.23;;
59922;SDS011;45778;51.142;3.732;2022-10-16T09:38:03;6.80;;;1.80;;
59922;SDS011;45778;51.142;3.732;2022-10-16T09:40:31;8.77;;;1.60;;
59922;SDS011;45778;51.142;3.732;2022-10-16T09:45:59;6.65;;;1.58;;
59922;SDS011;45778;51.142;3.732;2022-10-16T09:48:35;7.18;;;1.67;;
59922;SDS011;45778;51.142;3.732;2022-10-16T09:51:04;9.70;;;1.98;;
59922;SDS011;45778;51.142;3.732;2022-10-16T09:53:43;6.38;;;1.70;;
59922;SDS011;45778;51.142;3.732;2022-10-16T09:56:11;8.98;;;1.80;;
59922;SDS011;45778;51.142;3.732;2022-10-16T09:58:50;4.63;;;1.35;;
59922;SDS011;45778;51.142;3.732;2022-10-16T10:01:17;5.15;;;1.83;;
59922;SDS011;45778;51.142;3.732;2022-10-16T10:03:44;10.73;;;1.55;;
59922;SDS011;45778;51.142;3.732;2022-10-16T10:06:23;5.28;;;1.30;;
59922;SDS011;45778;51.142;3.732;2022-10-16T10:08:54;4.72;;;1.50;;
59922;SDS011;45778;51.142;3.732;2022-10-16T10:11:40;6.13;;;1.80;;
59922;SDS011;45778;51.142;3.732;2022-10-16T10:16:49;16.50;;;2.58;;
59922;SDS011;45778;51.142;3.732;2022-10-16T10:19:17;7.70;;;1.60;;
59922;SDS011;45778;51.142;3.732;2022-10-16T10:21:45;11.43;;;2.15;;
59922;SDS011;45778;51.142;3.732;2022-10-16T10:24:12;6.97;;;1.55;;
59922;SDS011;45778;51.142;3.732;2022-10-16T10:26:41;10.68;;;1.77;;
59922;SDS011;45778;51.142;3.732;2022-10-16T10:32:11;10.30;;;1.83;;
59922;SDS011;45778;51.142;3.732;2022-10-16T10:35:07;6.45;;;1.50;;
59922;SDS011;45778;51.142;3.732;2022-10-16T10:52:05;9.20;;;2.35;;
59922;SDS011;45778;51.142;3.732;2022-10-16T11:00:18;7.50;;;1.90;;
59922;SDS011;45778;51.142;3.732;2022-10-16T11:08:18;7.88;;;1.90;;
59922;SDS011;45778;51.142;3.732;2022-10-16T11:10:57;9.23;;;1.88;;
59922;SDS011;45778;51.142;3.732;2022-10-16T11:16:19;7.10;;;2.05;;
59922;SDS011;45778;51.142;3.732;2022-10-16T11:21:36;8.40;;;2.00;;
59922;SDS011;45778;51.142;3.732;2022-10-16T11:26:41;6.90;;;1.60;;
59922;SDS011;45778;51.142;3.732;2022-10-16T11:29:25;9.60;;;1.50;;
59922;SDS011;45778;51.142;3.732;2022-10-16T11:31:57;9.13;;;1.52;;
59922;SDS011;45778;51.142;3.732;2022-10-16T11:34:47;10.55;;;1.75;;
59922;SDS011;45778;51.142;3.732;2022-10-16T11:37:18;4.57;;;1.67;;
59922;SDS011;45778;51.142;3.732;2022-10-16T11:39:49;8.57;;;1.75;;
59922;SDS011;45778;51.142;3.732;2022-10-16T11:42:35;8.15;;;1.25;;
59922;SDS011;45778;51.142;3.732;2022-10-16T11:45:08;6.68;;;1.30;;
59922;SDS011;45778;51.142;3.732;2022-10-16T11:47:40;10.68;;;1.30;;
59922;SDS011;45778;51.142;3.732;2022-10-16T11:52:55;9.38;;;1.63;;
59922;SDS011;45778;51.142;3.732;2022-10-16T11:55:40;11.68;;;1.48;;
59922;SDS011;45778;51.142;3.732;2022-10-16T11:58:26;7.18;;;1.45;;
59922;SDS011;45778;51.142;3.732;2022-10-16T12:04:01;7.03;;;1.20;;
59922;SDS011;45778;51.142;3.732;2022-10-16T12:07:02;10.95;;;1.60;;
59922;SDS011;45778;51.142;3.732;2022-10-16T12:09:34;6.05;;;1.52;;
59922;SDS011;45778;51.142;3.732;2022-10-16T12:12:02;7.95;;;1.67;;
59922;SDS011;45778;51.142;3.732;2022-10-16T12:14:38;6.15;;;1.45;;
59922;SDS011;45778;51.142;3.732;2022-10-16T12:19:45;6.90;;;1.50;;
59922;SDS011;45778;51.142;3.732;2022-10-16T12:22:23;4.93;;;1.25;;
59922;SDS011;45778;51.142;3.732;2022-10-16T12:24:52;8.35;;;1.50;;
59922;SDS011;45778;51.142;3.732;2022-10-16T12:27:29;8.85;;;1.60;;
59922;SDS011;45778;51.142;3.732;2022-10-16T12:29:58;9.82;;;1.30;;
59922;SDS011;45778;51.142;3.732;2022-10-16T12:34:51;7.53;;;1.80;;
59922;SDS011;45778;51.142;3.732;2022-10-16T12:37:24;8.52;;;1.75;;
59922;SDS011;45778;51.142;3.732;2022-10-16T12:39:53;10.95;;;1.65;;
59922;SDS011;45778;51.142;3.732;2022-10-16T12:44:48;5.15;;;1.23;;
59922;SDS011;45778;51.142;3.732;2022-10-16T12:47:24;6.78;;;1.35;;
59922;SDS011;45778;51.142;3.732;2022-10-16T12:50:02;5.20;;;1.30;;
59922;SDS011;45778;51.142;3.732;2022-10-16T12:52:36;6.45;;;1.10;;
59922;SDS011;45778;51.142;3.732;2022-10-16T12:55:04;3.97;;;1.02;;
59922;SDS011;45778;51.142;3.732;2022-10-16T13:00:26;6.43;;;1.13;;
59922;SDS011;45778;51.142;3.732;2022-10-16T13:19:55;4.53;;;0.80;;
59922;SDS011;45778;51.142;3.732;2022-10-16T13:22:33;3.90;;;0.70;;
59922;SDS011;45778;51.142;3.732;2022-10-16T13:25:34;2.80;;;0.90;;
59922;SDS011;45778;51.142;3.732;2022-10-16T13:28:26;4.82;;;0.80;;
59922;SDS011;45778;51.142;3.732;2022-10-16T13:30:56;4.00;;;0.93;;
59922;SDS011;45778;51.142;3.732;2022-10-16T13:33:33;3.60;;;0.73;;
59922;SDS011;45778;51.142;3.732;2022-10-16T13:36:02;5.85;;;0.90;;
59922;SDS011;45778;51.142;3.732;2022-10-16T13:38:30;3.65;;;0.73;;
59922;SDS011;45778;51.142;3.732;2022-10-16T13:41:04;5.35;;;0.80;;
59922;SDS011;45778;51.142;3.732;2022-10-16T13:43:42;6.43;;;1.00;;
59922;SDS011;45778;51.142;3.732;2022-10-16T13:46:14;4.45;;;1.13;;
59922;SDS011;45778;51.142;3.732;2022-10-16T13:48:41;4.93;;;0.88;;
59922;SDS011;45778;51.142;3.732;2022-10-16T13:51:12;5.93;;;1.05;;
59922;SDS011;45778;51.142;3.732;2022-10-16T13:53:39;3.85;;;0.80;;
59922;SDS011;45778;51.142;3.732;2022-10-16T13:56:07;2.95;;;0.90;;
59922;SDS011;45778;51.142;3.732;2022-10-16T13:58:37;5.75;;;0.90;;
59922;SDS011;45778;51.142;3.732;2022-10-16T14:01:04;5.32;;;0.88;;
59922;SDS011;45778;51.142;3.732;2022-10-16T14:03:40;5.38;;;1.05;;
59922;SDS011;45778;51.142;3.732;2022-10-16T14:06:10;4.82;;;1.33;;
59922;SDS011;45778;51.142;3.732;2022-10-16T14:11:33;4.80;;;2.05;;
59922;SDS011;45778;51.142;3.732;2022-10-16T14:14:11;6.72;;;2.70;;
59922;SDS011;45778;51.142;3.732;2022-10-16T14:16:38;6.15;;;2.45;;
59922;SDS011;45778;51.142;3.732;2022-10-16T14:19:13;5.10;;;1.77;;
59922;SDS011;45778;51.142;3.732;2022-10-16T14:21:44;4.07;;;1.30;;
59922;SDS011;45778;51.142;3.732;2022-10-16T14:24:10;8.93;;;1.52;;
59922;SDS011;45778;51.142;3.732;2022-10-16T14:26:49;4.80;;;1.00;;
59922;SDS011;45778;51.142;3.732;2022-10-16T14:29:18;2.42;;;0.80;;
59922;SDS011;45778;51.142;3.732;2022-10-16T14:31:55;3.88;;;1.17;;
59922;SDS011;45778;51.142;3.732;2022-10-16T14:36:54;5.20;;;1.75;;
59922;SDS011;45778;51.142;3.732;2022-10-16T14:39:20;5.00;;;0.90;;
59922;SDS011;45778;51.142;3.732;2022-10-16T14:41:48;3.80;;;0.82;;
59922;SDS011;45778;51.142;3.732;2022-10-16T14:44:19;1.80;;;0.90;;
59922;SDS011;45778;51.142;3.732;2022-10-16T14:46:49;1.25;;;0.55;;
59922;SDS011;45778;51.142;3.732;2022-10-16T14:49:16;3.70;;;0.82;;
59922;SDS011;45778;51.142;3.732;2022-10-16T14:51:45;4.32;;;1.58;;
59922;SDS011;45778;51.142;3.732;2022-10-16T14:54:12;3.80;;;1.27;;
59922;SDS011;45778;51.142;3.732;2022-10-16T15:02:13;6.72;;;4.43;;
59922;SDS011;45778;51.142;3.732;2022-10-16T15:04:53;8.45;;;4.38;;
59922;SDS011;45778;51.142;3.732;2022-10-16T15:07:19;4.03;;;2.50;;
59922;SDS011;45778;51.142;3.732;2022-10-16T15:09:44;7.00;;;1.77;;
59922;SDS011;45778;51.142;3.732;2022-10-16T15:12:10;4.10;;;1.75;;
59922;SDS011;45778;51.142;3.732;2022-10-16T15:14:36;5.75;;;1.95;;
59922;SDS011;45778;51.142;3.732;2022-10-16T15:17:02;6.57;;;2.05;;
59922;SDS011;45778;51.142;3.732;2022-10-16T15:19:28;5.78;;;1.88;;
59922;SDS011;45778;51.142;3.732;2022-10-16T15:21:53;7.18;;;1.77;;
59922;SDS011;45778;51.142;3.732;2022-10-16T15:24:19;5.70;;;1.30;;
59922;SDS011;45778;51.142;3.732;2022-10-16T15:26:45;2.35;;;0.82;;
59922;SDS011;45778;51.142;3.732;2022-10-16T15:29:14;4.05;;;0.93;;
59922;SDS011;45778;51.142;3.732;2022-10-16T15:31:40;2.75;;;0.70;;
59922;SDS011;45778;51.142;3.732;2022-10-16T15:34:09;2.47;;;0.80;;
59922;SDS011;45778;51.142;3.732;2022-10-16T15:36:36;3.50;;;0.90;;
59922;SDS011;45778;51.142;3.732;2022-10-16T15:39:03;4.25;;;0.80;;
59922;SDS011;45778;51.142;3.732;2022-10-16T15:41:30;1.92;;;0.75;;
59922;SDS011;45778;51.142;3.732;2022-10-16T15:43:56;3.88;;;1.40;;
59922;SDS011;45778;51.142;3.732;2022-10-16T15:46:22;8.15;;;2.05;;
59922;SDS011;45778;51.142;3.732;2022-10-16T15:48:49;5.13;;;2.50;;
59922;SDS011;45778;51.142;3.732;2022-10-16T15:51:16;7.00;;;2.45;;
59922;SDS011;45778;51.142;3.732;2022-10-16T15:53:43;9.30;;;3.58;;
59922;SDS011;45778;51.142;3.732;2022-10-16T15:56:11;12.13;;;3.42;;
59922;SDS011;45778;51.142;3.732;2022-10-16T15:58:37;5.80;;;2.50;;
59922;SDS011;45778;51.142;3.732;2022-10-16T16:01:03;6.82;;;2.55;;
59922;SDS011;45778;51.142;3.732;2022-10-16T16:03:29;7.07;;;1.63;;
59922;SDS011;45778;51.142;3.732;2022-10-16T16:05:56;5.45;;;1.60;;
59922;SDS011;45778;51.142;3.732;2022-10-16T16:08:22;5.65;;;1.85;;
59922;SDS011;45778;51.142;3.732;2022-10-16T16:11:00;4.13;;;1.40;;
59922;SDS011;45778;51.142;3.732;2022-10-16T16:13:27;4.78;;;1.73;;
59922;SDS011;45778;51.142;3.732;2022-10-16T16:15:53;2.47;;;0.95;;
59922;SDS011;45778;51.142;3.732;2022-10-16T16:18:19;2.60;;;1.38;;
59922;SDS011;45778;51.142;3.732;2022-10-16T16:20:45;5.00;;;1.60;;
59922;SDS011;45778;51.142;3.732;2022-10-16T16:23:10;2.35;;;1.02;;
59922;SDS011;45778;51.142;3.732;2022-10-16T16:25:36;3.72;;;1.55;;
59922;SDS011;45778;51.142;3.732;2022-10-16T16:28:02;2.75;;;1.33;;
59922;SDS011;45778;51.142;3.732;2022-10-16T16:30:27;6.05;;;1.40;;
59922;SDS011;45778;51.142;3.732;2022-10-16T16:32:53;5.32;;;1.60;;
59922;SDS011;45778;51.142;3.732;2022-10-16T16:35:19;5.65;;;1.65;;
59922;SDS011;45778;51.142;3.732;2022-10-16T16:37:44;2.72;;;1.25;;
59922;SDS011;45778;51.142;3.732;2022-10-16T16:40:11;2.00;;;1.10;;
59922;SDS011;45778;51.142;3.732;2022-10-16T16:42:37;3.95;;;1.17;;
59922;SDS011;45778;51.142;3.732;2022-10-16T16:45:02;4.57;;;1.17;;
59922;SDS011;45778;51.142;3.732;2022-10-16T16:47:28;6.55;;;1.20;;
59922;SDS011;45778;51.142;3.732;2022-10-16T16:49:54;2.05;;;1.10;;
59922;SDS011;45778;51.142;3.732;2022-10-16T16:52:19;4.28;;;1.10;;
59922;SDS011;45778;51.142;3.732;2022-10-16T16:54:45;3.78;;;1.40;;
59922;SDS011;45778;51.142;3.732;2022-10-16T16:57:17;6.22;;;1.58;;
59922;SDS011;45778;51.142;3.732;2022-10-16T16:59:43;5.28;;;1.17;;
59922;SDS011;45778;51.142;3.732;2022-10-16T17:02:09;3.40;;;1.10;;
59922;SDS011;45778;51.142;3.732;2022-10-16T17:04:35;7.10;;;1.50;;
59922;SDS011;45778;51.142;3.732;2022-10-16T17:07:00;6.25;;;1.23;;